createdAt,value
2019-03-18T00:01:34.173Z,27.73
2019-03-18T00:04:02.469Z,33.43
2019-03-18T00:06:30.729Z,36.17
2019-03-18T00:08:58.984Z,39.23
2019-03-18T00:11:27.266Z,42.97
2019-03-18T00:13:55.519Z,44.10
2019-03-18T00:16:23.792Z,36.10
2019-03-18T00:18:52.041Z,41.77
2019-03-18T00:21:20.308Z,43.27
2019-03-18T00:23:48.576Z,47.20
2019-03-18T00:26:16.831Z,50.03
2019-03-18T00:28:45.341Z,49.90
2019-03-18T00:31:13.601Z,49.80
2019-03-18T00:33:41.873Z,51.73
2019-03-18T00:36:10.159Z,52.80
2019-03-18T00:38:38.545Z,56.60
2019-03-18T00:41:06.820Z,59.43
2019-03-18T00:43:35.305Z,59.77
2019-03-18T00:46:03.585Z,62.57
2019-03-18T00:48:31.846Z,59.57
2019-03-18T00:51:00.122Z,62.07
2019-03-18T00:53:28.421Z,61.40
2019-03-18T00:55:56.673Z,59.50
2019-03-18T00:58:24.952Z,62.23
2019-03-18T01:00:53.438Z,64.17
2019-03-18T01:03:21.948Z,63.90
2019-03-18T01:05:50.440Z,64.40
2019-03-18T01:08:18.950Z,64.77
2019-03-18T01:10:47.205Z,66.70
2019-03-18T01:13:15.469Z,61.17
2019-03-18T01:15:43.733Z,64.20
2019-03-18T01:18:12.010Z,59.33
2019-03-18T01:20:40.270Z,73.83
2019-03-18T01:23:08.522Z,66.53
2019-03-18T01:25:36.794Z,58.50
2019-03-18T01:28:05.042Z,67.40
2019-03-18T01:30:33.314Z,63.50
2019-03-18T01:33:01.572Z,58.93
2019-03-18T01:35:30.118Z,63.90
2019-03-18T01:37:58.411Z,67.10
2019-03-18T01:40:26.689Z,67.33
2019-03-18T01:42:54.947Z,65.23
2019-03-18T01:45:23.216Z,60.50
2019-03-18T01:47:51.476Z,66.67
2019-03-18T01:50:19.751Z,67.23
2019-03-18T01:52:48.014Z,62.27
2019-03-18T01:55:16.526Z,59.87
2019-03-18T01:57:44.781Z,63.13
2019-03-18T02:00:14.089Z,60.80
2019-03-18T02:02:42.365Z,60.87
2019-03-18T02:05:10.795Z,60.97
2019-03-18T02:07:39.117Z,56.20
2019-03-18T02:10:17.871Z,61.30
2019-03-18T02:12:46.161Z,58.80
2019-03-18T02:15:14.843Z,59.50
2019-03-18T02:17:43.099Z,56.30
2019-03-18T02:20:15.160Z,64.77
2019-03-18T02:22:43.445Z,58.37
2019-03-18T02:25:11.846Z,59.80
2019-03-18T02:27:40.108Z,57.10
2019-03-18T02:30:10.972Z,48.30
2019-03-18T02:32:39.234Z,55.07
2019-03-18T02:35:07.493Z,50.57
2019-03-18T02:37:35.789Z,52.57
2019-03-18T02:40:05.906Z,50.60
2019-03-18T02:42:34.227Z,47.97
2019-03-18T02:45:02.906Z,44.13
2019-03-18T02:47:31.159Z,45.00
2019-03-18T02:49:59.426Z,43.60
2019-03-18T02:52:27.694Z,40.50
2019-03-18T02:54:55.949Z,42.20
2019-03-18T02:57:24.219Z,40.77
2019-03-18T02:59:52.494Z,35.67
2019-03-18T03:02:20.747Z,35.63
2019-03-18T03:04:49.034Z,34.03
2019-03-18T03:07:17.311Z,33.10
2019-03-18T03:09:45.577Z,29.23
2019-03-18T03:12:13.833Z,28.97
2019-03-18T03:14:42.109Z,28.87
2019-03-18T03:17:10.597Z,26.93
2019-03-18T03:19:38.871Z,27.20
2019-03-18T03:22:07.438Z,23.37
2019-03-18T03:24:35.940Z,24.70
2019-03-18T03:27:04.438Z,21.93
2019-03-18T03:29:32.710Z,21.57
2019-03-18T03:32:00.958Z,22.20
2019-03-18T03:34:29.251Z,19.93
2019-03-18T03:36:57.563Z,18.93
2019-03-18T03:39:25.846Z,17.73
2019-03-18T03:41:54.421Z,16.70
2019-03-18T03:44:22.745Z,17.03
2019-03-18T03:46:51.264Z,14.98
2019-03-18T03:49:19.518Z,15.13
2019-03-18T03:51:47.806Z,13.33
2019-03-18T03:54:16.087Z,12.17
2019-03-18T03:56:44.394Z,11.20
2019-03-18T03:59:12.666Z,11.47
2019-03-18T04:01:40.909Z,9.60
2019-03-18T04:04:09.416Z,9.97
2019-03-18T04:06:37.710Z,9.50
2019-03-18T04:09:06.340Z,10.03
2019-03-18T04:11:34.587Z,8.95
2019-03-18T04:14:03.113Z,7.80
2019-03-18T04:16:31.359Z,7.30
2019-03-18T04:18:59.613Z,6.50
2019-03-18T04:21:28.119Z,6.57
2019-03-18T04:23:56.460Z,6.27
2019-03-18T04:26:24.704Z,6.00
2019-03-18T04:28:53.030Z,5.60
2019-03-18T04:31:21.305Z,5.30
2019-03-18T04:33:49.590Z,5.27
2019-03-18T04:36:17.899Z,5.10
2019-03-18T04:38:46.165Z,4.87
2019-03-18T04:41:14.408Z,4.97
2019-03-18T04:43:42.698Z,4.13
2019-03-18T04:46:11.261Z,3.87
2019-03-18T04:48:39.760Z,3.80
2019-03-18T04:51:08.014Z,3.10
2019-03-18T04:53:36.261Z,3.17
2019-03-18T04:56:04.529Z,3.33
2019-03-18T04:58:32.789Z,2.97
2019-03-18T05:01:01.038Z,2.87
2019-03-18T05:03:29.300Z,2.60
2019-03-18T05:05:57.573Z,2.73
2019-03-18T05:08:25.828Z,2.77
2019-03-18T05:10:54.084Z,2.50
2019-03-18T05:13:22.366Z,2.33
2019-03-18T05:15:50.704Z,2.57
2019-03-18T05:18:18.949Z,3.27
2019-03-18T05:20:47.195Z,2.47
2019-03-18T05:23:15.448Z,3.47
2019-03-18T05:25:43.692Z,2.63
2019-03-18T05:28:11.964Z,1.93
2019-03-18T05:30:40.228Z,1.70
2019-03-18T05:33:08.493Z,3.00
2019-03-18T05:35:36.990Z,1.97
2019-03-18T05:38:05.518Z,2.53
2019-03-18T05:40:33.828Z,2.03
2019-03-18T05:43:02.121Z,2.27
2019-03-18T05:45:30.437Z,2.50
2019-03-18T05:47:58.704Z,1.80
2019-03-18T05:50:27.201Z,2.00
2019-03-18T05:52:55.465Z,2.60
2019-03-18T05:55:23.729Z,2.40
2019-03-18T05:57:52.241Z,3.33
2019-03-18T06:00:20.482Z,2.93
2019-03-18T06:02:48.759Z,3.13
2019-03-18T06:05:17.649Z,2.43
2019-03-18T06:07:45.967Z,1.63
2019-03-18T06:10:14.308Z,2.80
2019-03-18T06:12:42.609Z,2.23
2019-03-18T06:15:11.705Z,3.13
2019-03-18T06:17:51.555Z,3.13
2019-03-18T06:20:11.217Z,2.90
2019-03-18T06:22:39.702Z,2.63
2019-03-18T06:25:09.050Z,4.20
2019-03-18T06:27:37.316Z,2.53
2019-03-18T06:30:11.409Z,3.53
2019-03-18T06:32:39.685Z,3.90
2019-03-18T06:35:09.383Z,2.13
2019-03-18T06:37:37.944Z,3.13
2019-03-18T06:40:09.040Z,3.40
2019-03-18T06:42:37.280Z,3.27
2019-03-18T06:45:07.898Z,3.33
2019-03-18T06:47:36.146Z,4.80
2019-03-18T06:50:06.133Z,3.97
2019-03-18T06:52:34.398Z,4.30
2019-03-18T06:55:02.881Z,3.53
2019-03-18T06:57:31.394Z,4.80
2019-03-18T06:59:59.657Z,4.07
2019-03-18T07:02:27.906Z,4.13
2019-03-18T07:04:56.418Z,3.20
2019-03-18T07:07:24.661Z,4.70
2019-03-18T07:09:52.953Z,4.47
2019-03-18T07:12:21.208Z,3.80
2019-03-18T07:14:49.459Z,4.40
2019-03-18T07:17:17.965Z,4.43
2019-03-18T07:19:46.213Z,3.87
2019-03-18T07:22:14.714Z,5.10
2019-03-18T07:24:43.218Z,3.97
2019-03-18T07:27:11.496Z,4.43
2019-03-18T07:29:39.742Z,4.03
2019-03-18T07:32:08.012Z,3.73
2019-03-18T07:34:36.257Z,4.60
2019-03-18T07:37:04.506Z,3.37
2019-03-18T07:39:32.777Z,4.27
2019-03-18T07:42:01.021Z,4.07
2019-03-18T07:44:29.296Z,4.87
2019-03-18T07:46:57.790Z,4.27
2019-03-18T07:49:26.272Z,4.43
2019-03-18T07:51:54.546Z,4.40
2019-03-18T07:54:32.283Z,4.10
2019-03-18T07:56:53.008Z,4.30
2019-03-18T07:59:21.285Z,5.03
2019-03-18T08:01:49.544Z,5.17
2019-03-18T08:04:18.051Z,5.53
2019-03-18T08:06:46.556Z,3.93
2019-03-18T08:09:15.145Z,4.30
2019-03-18T08:11:43.409Z,4.40
2019-03-18T08:14:11.930Z,3.27
2019-03-18T08:16:40.173Z,4.50
2019-03-18T08:19:08.442Z,3.43
2019-03-18T08:21:36.693Z,5.43
2019-03-18T08:24:04.971Z,4.20
2019-03-18T08:26:33.277Z,4.33
2019-03-18T08:29:01.536Z,5.40
2019-03-18T08:31:29.806Z,5.50
2019-03-18T08:33:58.073Z,4.43
2019-03-18T08:36:26.582Z,5.33
2019-03-18T08:38:55.099Z,4.70
2019-03-18T08:41:23.396Z,3.63
2019-03-18T08:43:51.657Z,4.17
2019-03-18T08:46:19.929Z,3.40
2019-03-18T08:48:55.617Z,4.10
2019-03-18T08:51:18.173Z,4.07
2019-03-18T08:53:46.418Z,5.20
2019-03-18T08:56:14.909Z,5.30
2019-03-18T08:58:43.153Z,4.73
2019-03-18T09:01:11.412Z,4.33
2019-03-18T09:03:39.685Z,3.93
2019-03-18T09:06:08.039Z,3.97
2019-03-18T09:08:36.279Z,5.30
2019-03-18T09:11:04.531Z,4.83
2019-03-18T09:13:32.818Z,4.90
2019-03-18T09:16:01.085Z,5.27
2019-03-18T09:18:29.366Z,4.17
2019-03-18T09:20:57.915Z,3.90
2019-03-18T09:23:26.427Z,3.73
2019-03-18T09:25:54.693Z,3.30
2019-03-18T09:28:23.185Z,4.57
2019-03-18T09:30:51.434Z,4.37
2019-03-18T09:33:19.702Z,4.93
2019-03-18T09:35:47.971Z,4.10
2019-03-18T09:38:16.206Z,4.60
2019-03-18T09:40:44.473Z,5.00
2019-03-18T09:43:12.711Z,6.93
2019-03-18T09:45:40.976Z,4.20
2019-03-18T09:48:09.221Z,4.60
2019-03-18T09:50:37.485Z,3.60
2019-03-18T09:53:05.733Z,5.23
2019-03-18T09:55:34.010Z,5.03
2019-03-18T09:58:02.251Z,4.17
2019-03-18T10:00:30.521Z,3.70
2019-03-18T10:02:58.792Z,3.90
2019-03-18T10:05:27.039Z,3.50
2019-03-18T10:07:55.297Z,2.73
2019-03-18T10:10:23.546Z,4.37
2019-03-18T10:12:52.033Z,4.70
2019-03-18T10:15:21.140Z,2.97
2019-03-18T10:17:49.626Z,3.87
2019-03-18T10:20:17.965Z,5.63
2019-03-18T10:22:46.209Z,3.77
2019-03-18T10:25:14.493Z,2.90
2019-03-18T10:27:42.762Z,2.80
2019-03-18T10:30:15.732Z,3.43
2019-03-18T10:32:43.975Z,5.00
2019-03-18T10:35:12.248Z,3.93
2019-03-18T10:37:40.523Z,4.67
2019-03-18T10:40:10.873Z,4.03
2019-03-18T10:42:39.428Z,3.97
2019-03-18T10:45:11.353Z,4.13
2019-03-18T10:47:39.613Z,3.53
2019-03-18T10:50:10.957Z,3.73
2019-03-18T10:52:39.463Z,4.77
2019-03-18T10:55:09.073Z,3.20
2019-03-18T10:57:37.313Z,4.27
2019-03-18T11:00:11.578Z,4.70
2019-03-18T11:02:39.823Z,5.53
2019-03-18T11:05:08.881Z,4.93
2019-03-18T11:07:37.143Z,3.83
2019-03-18T11:10:12.630Z,2.93
2019-03-18T11:12:41.052Z,3.43
2019-03-18T11:15:19.573Z,3.50
2019-03-18T11:17:47.817Z,3.57
2019-03-18T11:20:16.513Z,4.83
2019-03-18T11:22:44.797Z,4.50
2019-03-18T11:25:14.216Z,3.80
2019-03-18T11:27:42.453Z,4.00
2019-03-18T11:30:15.615Z,3.80
2019-03-18T11:32:43.957Z,3.90
2019-03-18T11:35:12.225Z,3.80
2019-03-18T11:37:40.493Z,4.50
2019-03-18T11:40:16.764Z,3.53
2019-03-18T11:42:45.000Z,4.90
2019-03-18T11:45:14.333Z,4.57
2019-03-18T11:47:42.569Z,3.93
2019-03-18T11:50:12.788Z,4.47
2019-03-18T11:52:41.109Z,4.63
2019-03-18T11:55:16.753Z,4.50
2019-03-18T11:57:45.028Z,4.87
2019-03-18T12:00:18.190Z,2.67
2019-03-18T12:02:46.431Z,4.20
2019-03-18T12:05:17.596Z,4.17
2019-03-18T12:07:45.846Z,4.30
2019-03-18T12:10:16.289Z,3.67
2019-03-18T12:12:44.552Z,5.53
2019-03-18T12:15:14.657Z,4.43
2019-03-18T12:17:42.897Z,7.17
2019-03-18T12:20:23.565Z,14.10
2019-03-18T12:22:42.564Z,6.87
2019-03-18T12:25:11.681Z,5.40
2019-03-18T12:27:39.957Z,4.57
2019-03-18T12:30:13.942Z,5.57
2019-03-18T12:32:42.279Z,9.40
2019-03-18T12:35:10.538Z,6.50
2019-03-18T12:37:38.874Z,11.07
2019-03-18T12:40:09.762Z,10.73
2019-03-18T12:42:38.274Z,8.93
2019-03-18T12:45:09.273Z,7.73
2019-03-18T12:47:37.541Z,12.40
2019-03-18T12:50:09.003Z,7.17
2019-03-18T12:52:37.269Z,7.93
2019-03-18T12:55:06.039Z,8.70
2019-03-18T12:57:34.330Z,6.07
2019-03-18T13:00:02.608Z,7.10
2019-03-18T13:02:31.097Z,8.67
2019-03-18T13:04:59.362Z,6.33
2019-03-18T13:07:27.637Z,9.43
2019-03-18T13:09:55.911Z,10.00
2019-03-18T13:12:24.442Z,6.63
2019-03-18T13:14:52.970Z,7.43
2019-03-18T13:17:21.388Z,7.13
2019-03-18T13:19:49.871Z,8.03
2019-03-18T13:22:18.178Z,6.60
2019-03-18T13:24:46.412Z,6.13
2019-03-18T13:27:15.140Z,6.67
2019-03-18T13:29:43.565Z,7.78
2019-03-18T13:32:11.843Z,8.67
2019-03-18T13:34:40.121Z,7.22
2019-03-18T13:37:08.633Z,7.45
2019-03-18T13:39:36.878Z,17.57
2019-03-18T13:42:05.146Z,21.00
2019-03-18T13:44:33.422Z,16.12
2019-03-18T13:47:01.668Z,9.30
2019-03-18T13:49:29.984Z,25.77
2019-03-18T13:51:58.316Z,62.00
2019-03-18T13:54:26.569Z,45.70
2019-03-18T13:56:55.093Z,38.93
2019-03-18T13:59:23.369Z,42.62
2019-03-18T14:01:51.633Z,55.67
2019-03-18T14:04:19.905Z,68.90
2019-03-18T14:06:48.190Z,62.80
2019-03-18T14:09:16.693Z,39.53
2019-03-18T14:11:45.216Z,175.47
2019-03-18T14:14:13.480Z,52.43
2019-03-18T14:16:41.815Z,27.62
2019-03-18T14:19:10.049Z,38.67
2019-03-18T14:21:38.340Z,60.10
2019-03-18T14:24:06.667Z,79.87
2019-03-18T14:26:34.947Z,46.93
2019-03-18T14:29:03.221Z,63.60
2019-03-18T14:31:31.598Z,21.62
2019-03-18T14:33:59.845Z,25.33
2019-03-18T14:36:28.385Z,53.68
2019-03-18T14:38:56.898Z,119.47
2019-03-18T14:41:25.394Z,25.33
2019-03-18T14:43:53.753Z,50.03
2019-03-18T14:46:22.042Z,82.10
2019-03-18T14:48:50.342Z,44.80
2019-03-18T14:51:18.623Z,110.40
2019-03-18T14:53:47.156Z,58.63
2019-03-18T14:56:15.409Z,41.97
2019-03-18T14:58:43.894Z,41.03
2019-03-18T15:01:12.169Z,32.90
2019-03-18T15:03:40.462Z,35.37
2019-03-18T15:06:08.732Z,29.37
2019-03-18T15:08:37.024Z,43.83
2019-03-18T15:11:05.296Z,51.73
2019-03-18T15:13:33.577Z,57.73
2019-03-18T15:16:01.858Z,72.43
2019-03-18T15:18:30.361Z,118.13
2019-03-18T15:20:58.884Z,185.53
2019-03-18T15:23:27.198Z,78.13
2019-03-18T15:25:55.460Z,84.07
2019-03-18T15:28:23.731Z,69.50
2019-03-18T15:30:52.002Z,95.60
2019-03-18T15:33:20.279Z,57.43
2019-03-18T15:35:48.849Z,50.07
2019-03-18T15:38:17.140Z,43.53
2019-03-18T15:40:45.421Z,42.90
2019-03-18T15:43:13.905Z,43.07
2019-03-18T15:45:42.190Z,42.60
2019-03-18T15:48:10.471Z,42.93
2019-03-18T15:50:38.719Z,43.03
2019-03-18T15:53:06.989Z,36.40
2019-03-18T15:55:35.242Z,39.17
2019-03-18T15:58:03.498Z,30.17
2019-03-18T16:00:32.713Z,32.87
2019-03-18T16:03:01.069Z,35.93
2019-03-18T16:05:29.564Z,31.53
2019-03-18T16:07:57.808Z,24.83
2019-03-18T16:10:26.099Z,27.07
2019-03-18T16:12:54.397Z,30.23
2019-03-18T16:15:22.673Z,21.30
2019-03-18T16:17:50.972Z,21.67
2019-03-18T16:20:25.830Z,28.97
2019-03-18T16:22:54.374Z,28.83
2019-03-18T16:25:22.722Z,36.63
2019-03-18T16:27:51.349Z,19.50
2019-03-18T16:30:21.569Z,21.67
2019-03-18T16:32:49.887Z,22.13
2019-03-18T16:35:18.376Z,24.00
2019-03-18T16:37:46.649Z,23.90
2019-03-18T16:40:19.746Z,18.57
2019-03-18T16:42:48.013Z,20.30
2019-03-18T16:45:17.023Z,17.07
2019-03-18T16:47:45.301Z,23.87
2019-03-18T16:50:18.050Z,20.17
2019-03-18T16:52:46.557Z,21.83
2019-03-18T16:55:14.796Z,15.80
2019-03-18T16:57:43.073Z,14.80
2019-03-18T17:00:14.354Z,12.63
2019-03-18T17:02:42.860Z,14.60
2019-03-18T17:05:11.172Z,13.33
2019-03-18T17:07:39.449Z,15.03
2019-03-18T17:10:10.394Z,10.97
2019-03-18T17:12:38.729Z,12.10
2019-03-18T17:15:11.448Z,17.03
2019-03-18T17:17:39.704Z,15.53
2019-03-18T17:20:10.312Z,14.23
2019-03-18T17:22:48.243Z,10.63
2019-03-18T17:25:14.542Z,11.53
2019-03-18T17:27:42.794Z,12.43
2019-03-18T17:30:15.809Z,11.73
2019-03-18T17:32:44.057Z,12.50
2019-03-18T17:35:12.580Z,12.47
2019-03-18T17:37:40.841Z,11.43
2019-03-18T17:40:12.084Z,10.33
2019-03-18T17:42:40.345Z,9.90
2019-03-18T17:45:10.953Z,11.30
2019-03-18T17:47:39.222Z,10.63
2019-03-18T17:50:10.606Z,8.87
2019-03-18T17:52:38.878Z,8.67
2019-03-18T17:55:07.117Z,11.17
2019-03-18T17:57:35.373Z,10.60
2019-03-18T18:00:06.643Z,12.80
2019-03-18T18:02:34.897Z,10.77
2019-03-18T18:05:03.906Z,10.83
2019-03-18T18:07:32.238Z,8.87
2019-03-18T18:10:00.506Z,9.70
2019-03-18T18:12:28.766Z,10.33
2019-03-18T18:14:59.074Z,8.07
2019-03-18T18:17:27.707Z,8.13
2019-03-18T18:19:56.213Z,9.70
2019-03-18T18:22:24.477Z,7.53
2019-03-18T18:24:52.788Z,10.60
2019-03-18T18:27:21.072Z,7.17
2019-03-18T18:29:49.634Z,9.07
2019-03-18T18:32:18.164Z,6.50
2019-03-18T18:34:46.413Z,8.93
2019-03-18T18:37:14.661Z,8.90
2019-03-18T18:39:42.917Z,7.30
2019-03-18T18:42:11.248Z,5.40
2019-03-18T18:44:39.576Z,9.00
2019-03-18T18:47:07.817Z,8.00
2019-03-18T18:49:36.071Z,6.43
2019-03-18T18:52:04.402Z,8.03
2019-03-18T18:54:32.713Z,6.67
2019-03-18T18:57:00.986Z,6.03
2019-03-18T18:59:29.302Z,8.13
2019-03-18T19:01:57.600Z,5.93
2019-03-18T19:04:25.936Z,5.33
2019-03-18T19:06:54.437Z,7.30
2019-03-18T19:09:22.686Z,7.83
2019-03-18T19:11:50.992Z,5.10
2019-03-18T19:14:19.257Z,6.30
2019-03-18T19:16:47.505Z,4.87
2019-03-18T19:19:16.001Z,6.63
2019-03-18T19:21:44.314Z,6.43
2019-03-18T19:24:12.586Z,5.40
2019-03-18T19:26:40.855Z,7.53
2019-03-18T19:29:09.124Z,5.97
2019-03-18T19:31:37.372Z,7.77
2019-03-18T19:34:05.639Z,5.70
2019-03-18T19:36:34.134Z,5.83
2019-03-18T19:39:02.442Z,5.77
2019-03-18T19:41:30.690Z,6.30
2019-03-18T19:43:59.028Z,5.47
2019-03-18T19:46:27.272Z,3.63
2019-03-18T19:48:55.575Z,3.90
2019-03-18T19:51:23.817Z,6.13
2019-03-18T19:53:52.110Z,7.10
2019-03-18T19:56:20.370Z,5.70
2019-03-18T19:58:48.661Z,4.30
2019-03-18T20:01:16.919Z,4.03
2019-03-18T20:03:45.202Z,3.67
2019-03-18T20:06:13.470Z,4.63
2019-03-18T20:08:41.777Z,4.83
2019-03-18T20:11:10.091Z,5.40
2019-03-18T20:13:38.585Z,4.50
2019-03-18T20:16:07.036Z,5.30
2019-03-18T20:18:35.542Z,5.20
2019-03-18T20:21:04.072Z,4.40
2019-03-18T20:23:32.397Z,4.27
2019-03-18T20:26:00.956Z,4.80
2019-03-18T20:28:29.214Z,5.50
2019-03-18T20:30:57.508Z,4.67
2019-03-18T20:33:25.784Z,5.10
2019-03-18T20:35:54.037Z,3.97
2019-03-18T20:38:22.405Z,5.23
2019-03-18T20:40:50.677Z,6.97
2019-03-18T20:43:19.023Z,5.33
2019-03-18T20:45:47.321Z,5.47
2019-03-18T20:48:15.609Z,4.50
2019-03-18T20:50:44.127Z,3.50
2019-03-18T20:53:12.477Z,4.73
2019-03-18T20:55:40.741Z,4.43
2019-03-18T20:58:09.336Z,4.30
2019-03-18T21:00:37.606Z,4.03
2019-03-18T21:03:05.862Z,4.73
2019-03-18T21:05:34.134Z,6.00
2019-03-18T21:08:02.397Z,4.20
2019-03-18T21:10:30.649Z,4.97
2019-03-18T21:12:58.917Z,4.47
2019-03-18T21:15:27.191Z,4.90
2019-03-18T21:17:55.434Z,5.73
2019-03-18T21:20:25.896Z,3.23
2019-03-18T21:22:54.393Z,4.77
2019-03-18T21:25:22.635Z,5.30
2019-03-18T21:27:51.148Z,4.03
2019-03-18T21:30:21.580Z,6.30
2019-03-18T21:32:49.880Z,5.70
2019-03-18T21:35:18.188Z,4.73
2019-03-18T21:37:46.432Z,4.47
2019-03-18T21:40:18.376Z,5.20
2019-03-18T21:42:46.653Z,5.27
2019-03-18T21:45:16.333Z,4.93
2019-03-18T21:47:44.809Z,5.90
2019-03-18T21:50:14.777Z,4.80
2019-03-18T21:52:43.014Z,4.37
2019-03-18T21:55:11.261Z,4.73
2019-03-18T21:57:39.517Z,3.83
2019-03-18T22:00:18.791Z,5.17
2019-03-18T22:02:47.048Z,4.77
2019-03-18T22:05:15.317Z,4.67
2019-03-18T22:07:43.579Z,6.57
2019-03-18T22:10:18.589Z,6.17
2019-03-18T22:12:47.241Z,4.33
2019-03-18T22:15:16.225Z,5.33
2019-03-18T22:17:44.483Z,4.27
2019-03-18T22:20:17.125Z,4.40
2019-03-18T22:22:45.622Z,5.60
2019-03-18T22:25:14.413Z,5.13
2019-03-18T22:27:42.674Z,3.73
2019-03-18T22:30:14.874Z,4.40
2019-03-18T22:32:43.133Z,5.57
2019-03-18T22:35:11.397Z,5.27
2019-03-18T22:37:39.662Z,6.40
2019-03-18T22:40:15.891Z,5.37
2019-03-18T22:42:44.157Z,4.93
2019-03-18T22:45:15.856Z,5.03
2019-03-18T22:47:44.166Z,4.57
2019-03-18T22:50:13.073Z,4.70
2019-03-18T22:52:41.336Z,4.57
2019-03-18T22:55:10.725Z,4.77
2019-03-18T22:57:39.161Z,3.93
2019-03-18T23:00:15.055Z,5.30
2019-03-18T23:02:43.590Z,4.00
2019-03-18T23:05:14.029Z,5.37
2019-03-18T23:07:42.273Z,4.23
2019-03-18T23:10:10.777Z,5.23
2019-03-18T23:12:39.037Z,4.63
2019-03-18T23:15:08.437Z,4.80
2019-03-18T23:17:36.704Z,4.40
2019-03-18T23:20:06.015Z,4.87
2019-03-18T23:22:34.256Z,5.13
2019-03-18T23:25:07.063Z,5.67
2019-03-18T23:27:32.570Z,6.30
2019-03-18T23:30:01.087Z,6.80
2019-03-18T23:32:29.327Z,7.37
2019-03-18T23:34:57.580Z,7.33
2019-03-18T23:37:25.846Z,8.50
2019-03-18T23:39:54.094Z,9.20
2019-03-18T23:42:22.360Z,9.40
2019-03-18T23:44:50.620Z,10.20
2019-03-18T23:47:19.142Z,11.00
2019-03-18T23:49:47.696Z,12.13
2019-03-18T23:52:16.013Z,12.77
2019-03-18T23:54:44.525Z,14.33
2019-03-18T23:57:12.781Z,14.80
2019-03-18T23:59:41.913Z,17.60
